Strona główna
METAR-TAF:

METAR-TAF

Lotnisko :

Port lotniczy Bagdad

Bagdad, Irak

Szerokość geograficzna: 33-15-45N, Długość geograficzna: 44-14-04E, wysokość: 35 m

Aktualna obserwacja pogody

Raport powstał 10 minut temu, godzina 12:00 UTC
Wiatr 14 kt od zachód
Temperatura 44°C
Wilgotność 13%
Ciśnienie 1001 hPa
Widzialność 10 km lub więcej
Brak chmur poniżej 1500 m i brak chmur cumulonimbus

METAR: ORBI 161200Z 26014KT CAVOK 44/09 Q1001 NOSIG

czas: 15:10 (12:10 UTC)

Prognoza

Raport powstał 1 godzina i 10 minut temu, godzina 11:00 UTC
Prognoza ważna od 16 godzina 12 UTC do 17 godzina 12 UTC
Wiatr 12 kt od zachodnio-północny zachód
Widzialność 10 km lub więcej
Brak chmur poniżej 1500 m i brak chmur cumulonimbus

TAF: ORBI 161100Z 1612/1712 30012KT CAVOK

Obserwacja i prognoza pogody dla ponad 4000 lotnisk (raport METAR i TAF).

Dostępne stacje oznaczono żółtymi i czerwonymi punktami na mapie.

Najedź kursorem aby zobaczyć nazwę stacji.

Kliknij aby zobaczyć obserwacje i prognozy pogody.

Aby zmienić mapę: kliknij na zielony przycisk z czarnym krzyżykiem, aby powiększyć; na zielony przycisk z myślnikiem, aby pomniejszyć; na zielone strzałki, aby przejść do map sąsiednich.


METAR-TAF: